Current Conditions
Clear
Conditions



Pressure
1014.92 (hPa) - 29.97 (inHG)
Visibility

10.0 (km) - 6.2 (miles)
   Temperature
21  °C
70°F
10  °C
Dewpoint
50  %
 Humidity
   Wind Speed
14  km/h
8  kts
9  mph
4.0  m/s
   Wind Direction
 230°
South West
   Airport Data
EDLV
Location Weeze Airport 20 km (12.43 mi)
Metar :EDLV 140950Z 23008KT 200V260 CAVOK 21/10 Q1015
Tue 14th July 11:50 am
   Raw Metar Info
Raw METAR is the most common format in the world for the transmission of observational weather data. It is highly standardized through the International Civil Aviation Organization (ICAO), which allows it to be understood throughout most of the world.
   API Info
Data Provided by
https://www.checkwx.com/weather/EDLV
   © Info
CSS/SVG/PHP scripts were developed by weather34.com for use in the weather34 template © 2015-2020

Guide Info provided by Metar-Wikipedia